createdAt,value
2019-06-26T00:01:50.822Z,101600.67
2019-06-26T00:04:33.782Z,101595.80
2019-06-26T00:07:06.993Z,101592.66
2019-06-26T00:09:40.392Z,101602.75
2019-06-26T00:12:15.271Z,101594.52
2019-06-26T00:14:59.908Z,101602.62
2019-06-26T00:17:33.222Z,101595.70
2019-06-26T00:20:06.528Z,101591.68
2019-06-26T00:22:40.272Z,101599.77
2019-06-26T00:25:14.204Z,101593.33
2019-06-26T00:27:47.440Z,101594.48
2019-06-26T00:30:20.824Z,101600.53
2019-06-26T00:33:03.652Z,101594.88
2019-06-26T00:35:37.333Z,101598.88
2019-06-26T00:38:10.956Z,101591.45
2019-06-26T00:40:44.167Z,101589.81
2019-06-26T00:43:41.480Z,101582.48
2019-06-26T00:46:03.550Z,101586.20
2019-06-26T00:48:36.888Z,101582.93
2019-06-26T00:51:10.498Z,101586.20
2019-06-26T00:53:43.843Z,101583.64
2019-06-26T00:56:17.272Z,101584.20
2019-06-26T00:58:52.621Z,101585.90
2019-06-26T01:01:25.975Z,101588.64
2019-06-26T01:04:13.772Z,101585.38
2019-06-26T01:06:47.161Z,101588.69
2019-06-26T01:09:20.421Z,101589.13
2019-06-26T01:11:55.304Z,101586.44
2019-06-26T01:14:38.222Z,101588.53
2019-06-26T01:17:11.560Z,101582.89
2019-06-26T01:19:44.802Z,101589.34
2019-06-26T01:22:18.110Z,101581.47
2019-06-26T01:24:52.889Z,101591.08
2019-06-26T01:27:28.763Z,101586.11
2019-06-26T01:30:02.078Z,101590.98
2019-06-26T01:32:47.568Z,101588.19
2019-06-26T01:35:20.877Z,101593.86
2019-06-26T01:37:53.947Z,101580.92
2019-06-26T01:40:40.308Z,101586.65
2019-06-26T01:43:13.874Z,101580.13
2019-06-26T01:45:50.472Z,101580.92
2019-06-26T01:48:23.390Z,101588.23
2019-06-26T01:50:57.447Z,101586.91
2019-06-26T01:53:30.670Z,101587.48
2019-06-26T01:56:03.627Z,101586.69
2019-06-26T01:58:55.358Z,101591.85
2019-06-26T02:01:49.088Z,101590.21
2019-06-26T02:04:36.885Z,101596.24
2019-06-26T02:07:28.191Z,101598.14
2019-06-26T02:10:01.823Z,101595.16
2019-06-26T02:12:36.196Z,101602.80
2019-06-26T02:15:29.257Z,101601.38
2019-06-26T02:18:02.825Z,101607.28
2019-06-26T02:20:36.201Z,101601.84
2019-06-26T02:23:10.814Z,101450.41
2019-06-26T02:25:46.111Z,101606.52
2019-06-26T02:28:20.943Z,101601.38
2019-06-26T02:30:54.339Z,101610.93
2019-06-26T02:33:39.436Z,101605.64
2019-06-26T02:36:13.530Z,101607.94
2019-06-26T02:38:59.348Z,101611.11
2019-06-26T02:41:34.607Z,101612.31
2019-06-26T02:44:09.494Z,101613.37
2019-06-26T02:46:42.814Z,101610.05
2019-06-26T02:49:35.303Z,101609.14
2019-06-26T02:52:19.837Z,101611.62
2019-06-26T02:55:05.261Z,101608.41
2019-06-26T02:57:38.554Z,101615.63
2019-06-26T04:08:16.522Z,101658.36
2019-06-26T04:10:50.427Z,101659.16
2019-06-26T04:13:34.229Z,101652.20
2019-06-26T04:16:20.022Z,101657.38
2019-06-26T04:18:53.783Z,101662.36
2019-06-26T04:21:27.042Z,101655.69
2019-06-26T04:24:00.771Z,101656.74
2019-06-26T04:26:36.276Z,101655.23
2019-06-26T04:29:09.643Z,101668.81
2019-06-26T04:31:43.332Z,101659.12
2019-06-26T04:34:17.434Z,101668.22
2019-06-26T04:37:08.900Z,101672.77
2019-06-26T04:39:42.581Z,101673.67
2019-06-26T04:42:36.121Z,101670.08
2019-06-26T04:45:10.809Z,101672.94
2019-06-26T04:47:44.482Z,101682.73
2019-06-26T04:50:36.226Z,101677.56
2019-06-26T04:53:09.856Z,101681.22
2019-06-26T04:55:43.326Z,101677.33
2019-06-26T04:58:17.553Z,101680.61
2019-06-26T05:01:07.033Z,101682.59
2019-06-26T05:03:58.814Z,101690.45
2019-06-26T05:06:50.194Z,101699.95
2019-06-26T05:09:41.628Z,101699.06
2019-06-26T05:12:25.089Z,101703.38
2019-06-26T05:14:58.473Z,101696.32
2019-06-26T05:17:35.152Z,101699.48
2019-06-26T05:20:10.283Z,101701.34
2019-06-26T05:22:46.893Z,101696.08
2019-06-26T05:25:20.312Z,101711.64
2019-06-26T05:27:53.988Z,101722.36
2019-06-26T05:30:29.349Z,101722.80
2019-06-26T05:33:14.102Z,101727.12
2019-06-26T05:35:49.581Z,101728.52
2019-06-26T05:38:23.271Z,101735.84
2019-06-26T05:40:59.007Z,101742.09
2019-06-26T05:43:34.291Z,101742.81
2019-06-26T05:46:08.001Z,101732.25
2019-06-26T05:48:41.343Z,101738.28
2019-06-26T05:51:14.843Z,101745.95
2019-06-26T05:53:54.300Z,101754.09
2019-06-26T05:56:27.607Z,101752.67
2019-06-26T05:59:10.630Z,101749.88
2019-06-26T06:01:44.488Z,101760.25
2019-06-26T06:04:17.852Z,101763.71
2019-06-26T06:06:52.227Z,101769.01
2019-06-26T06:09:43.613Z,101780.23
2019-06-26T06:12:29.410Z,101768.79
2019-06-26T06:15:19.387Z,101776.31
2019-06-26T06:18:03.453Z,101782.27
2019-06-26T06:20:41.546Z,101786.70
2019-06-26T06:23:26.131Z,101778.53
2019-06-26T06:25:59.833Z,101779.02
2019-06-26T06:28:33.614Z,101788.33
2019-06-26T06:31:07.180Z,101782.14
2019-06-26T06:33:40.940Z,101793.77
2019-06-26T06:36:14.650Z,101795.84
2019-06-26T06:39:02.304Z,101802.00
2019-06-26T06:41:37.414Z,101805.99
2019-06-26T06:44:11.447Z,101804.62
2019-06-26T06:47:03.891Z,101815.45
2019-06-26T06:49:30.981Z,101814.02
2019-06-26T06:52:04.274Z,101820.05
2019-06-26T06:54:50.061Z,101811.80
2019-06-26T06:57:23.899Z,101829.34
2019-06-26T07:00:16.849Z,101828.48
2019-06-26T07:03:07.318Z,101830.95
2019-06-26T07:05:41.397Z,101833.23
2019-06-26T07:08:14.723Z,101838.94
2019-06-26T07:10:47.984Z,101845.63
2019-06-26T07:13:21.877Z,101847.11
2019-06-26T07:15:55.354Z,101837.84
2019-06-26T07:18:29.107Z,101843.36
2019-06-26T07:21:02.514Z,101851.38
2019-06-26T07:23:36.543Z,101855.12
2019-06-26T07:26:13.191Z,101828.95
2019-06-26T07:28:45.489Z,101858.02
2019-06-26T07:31:19.071Z,101858.62
2019-06-26T07:33:55.402Z,101855.39
2019-06-26T07:36:27.772Z,101865.52
2019-06-26T07:39:20.582Z,101866.53
2019-06-26T07:41:53.618Z,101863.73
2019-06-26T07:44:27.559Z,101872.53
2019-06-26T07:47:00.892Z,101875.11
2019-06-26T07:49:34.609Z,101874.64
2019-06-26T07:52:08.400Z,101880.81
2019-06-26T07:54:41.625Z,101879.27
2019-06-26T07:57:14.938Z,101874.20
2019-06-26T07:59:47.426Z,101893.40
2019-06-26T08:02:20.941Z,101891.17
2019-06-26T08:04:54.381Z,101888.73
2019-06-26T08:07:28.100Z,101899.30
2019-06-26T08:10:01.822Z,101895.23
2019-06-26T08:12:35.598Z,101900.34
2019-06-26T08:15:08.478Z,101900.24
2019-06-26T08:17:55.924Z,101902.68
2019-06-26T08:20:32.824Z,101890.71
2019-06-26T08:23:07.273Z,101903.47
2019-06-26T08:25:47.684Z,101911.95
2019-06-26T08:28:23.187Z,101914.28
2019-06-26T08:30:56.587Z,101896.68
2019-06-26T08:33:30.700Z,101910.09
2019-06-26T08:36:04.034Z,101907.00
2019-06-26T08:38:56.557Z,101909.66
2019-06-26T08:41:29.779Z,101910.95
2019-06-26T08:44:03.347Z,101909.17
2019-06-26T08:46:37.170Z,101914.23
2019-06-26T08:49:24.261Z,101918.48
2019-06-26T08:51:55.105Z,101932.64
2019-06-26T08:54:38.461Z,101928.27
2019-06-26T08:57:13.145Z,101926.78
2019-06-26T08:59:47.683Z,101931.51
2019-06-26T09:02:31.255Z,101930.70
2019-06-26T09:05:15.246Z,101936.08
2019-06-26T09:07:58.266Z,101938.84
2019-06-26T09:10:31.995Z,101935.08
2019-06-26T09:13:05.286Z,101941.78
2019-06-26T09:15:39.383Z,101946.97
2019-06-26T09:18:12.571Z,101949.24
2019-06-26T09:20:47.190Z,101953.48
2019-06-26T09:23:20.609Z,101955.92
2019-06-26T09:25:54.199Z,101956.08
2019-06-26T09:28:44.088Z,101952.16
2019-06-26T09:31:33.083Z,101941.54
2019-06-26T09:34:07.413Z,101952.00
2019-06-26T09:36:51.315Z,101964.20
2019-06-26T09:39:24.813Z,101947.91
2019-06-26T09:42:08.427Z,101952.77
2019-06-26T09:44:51.777Z,101960.23
2019-06-26T09:47:26.051Z,101959.73
2019-06-26T09:49:59.902Z,101977.30
2019-06-26T09:52:33.328Z,101970.51
2019-06-26T09:55:08.748Z,101974.36
2019-06-26T09:57:42.838Z,101977.62
2019-06-26T10:00:16.795Z,101986.14
2019-06-26T10:03:00.479Z,101982.05
2019-06-26T10:05:33.467Z,101988.78
2019-06-26T10:08:07.075Z,101993.33
2019-06-26T10:10:41.670Z,101983.69
2019-06-26T10:13:24.910Z,101990.67
2019-06-26T10:16:02.189Z,101994.37
2019-06-26T10:18:45.417Z,102006.44
2019-06-26T10:21:18.678Z,102003.92
2019-06-26T10:23:51.870Z,102013.59
2019-06-26T10:26:25.878Z,102016.55
2019-06-26T10:28:59.109Z,102028.54
2019-06-26T10:31:32.419Z,102024.98
2019-06-26T10:34:09.843Z,102026.84
2019-06-26T10:36:51.031Z,102031.70
2019-06-26T10:39:34.817Z,102036.24
2019-06-26T10:42:18.339Z,102029.84
2019-06-26T10:45:01.642Z,102034.30
2019-06-26T10:47:39.550Z,102038.59
2019-06-26T10:50:11.501Z,102043.41
2019-06-26T10:52:45.228Z,102042.48
2019-06-26T10:55:19.926Z,102049.38
2019-06-26T10:58:03.157Z,102044.84
2019-06-26T11:00:36.882Z,102046.04
2019-06-26T11:03:10.846Z,102046.50
2019-06-26T11:06:00.403Z,102039.54
2019-06-26T11:08:34.749Z,102045.55
2019-06-26T11:11:08.063Z,102042.95
2019-06-26T11:13:51.292Z,102049.62
2019-06-26T11:16:39.768Z,102054.89
2019-06-26T11:19:13.538Z,102054.98
2019-06-26T11:21:59.226Z,102054.18
2019-06-26T11:24:33.252Z,102055.56
2019-06-26T11:27:06.542Z,102056.55
2019-06-26T11:29:40.112Z,102058.19
2019-06-26T11:32:13.646Z,102059.08
2019-06-26T11:34:47.330Z,102068.64
2019-06-26T11:37:23.158Z,102064.32
2019-06-26T11:39:55.802Z,102062.03
2019-06-26T11:42:32.588Z,102077.23
2019-06-26T11:45:05.082Z,102080.97
2019-06-26T11:47:38.730Z,102083.60
2019-06-26T11:50:12.676Z,102084.77
2019-06-26T11:52:47.044Z,102089.67
2019-06-26T11:55:20.862Z,102080.05
2019-06-26T11:57:54.423Z,102082.99
2019-06-26T12:00:28.712Z,102086.90
2019-06-26T12:03:17.906Z,102079.69
2019-06-26T12:05:51.599Z,102082.28
2019-06-26T12:08:25.216Z,102089.17
2019-06-26T12:10:59.058Z,102087.87
2019-06-26T12:13:33.658Z,102096.04
2019-06-26T12:16:07.243Z,102094.08
2019-06-26T12:18:41.088Z,102092.09
2019-06-26T12:21:14.291Z,102095.02
2019-06-26T12:23:48.064Z,102094.08
2019-06-26T12:26:22.344Z,102063.91
2019-06-26T12:28:54.862Z,102099.28
2019-06-26T12:31:30.695Z,102102.05
2019-06-26T12:34:04.085Z,102105.79
2019-06-26T12:36:36.372Z,102106.93
2019-06-26T12:39:09.767Z,102107.59
2019-06-26T12:41:43.386Z,102100.28
2019-06-26T12:44:17.648Z,102110.36
2019-06-26T12:47:03.585Z,102118.31
2019-06-26T12:49:36.886Z,102116.06
2019-06-26T12:52:11.204Z,102108.59
2019-06-26T12:54:58.007Z,102099.77
2019-06-26T12:57:31.664Z,102103.81
2019-06-26T13:00:06.252Z,102093.41
2019-06-26T13:02:52.359Z,102089.40
2019-06-26T13:05:45.043Z,102093.42
2019-06-26T13:08:31.103Z,102090.23
2019-06-26T13:11:04.999Z,102084.27
2019-06-26T13:14:01.962Z,102085.86
2019-06-26T13:16:35.589Z,102079.38
2019-06-26T13:19:09.858Z,102099.92
2019-06-26T13:22:01.220Z,102096.98
2019-06-26T13:24:34.667Z,102099.62
2019-06-26T13:27:08.360Z,102090.17
2019-06-26T13:29:44.254Z,102096.20
2019-06-26T13:32:30.693Z,102102.55
2019-06-26T13:35:13.866Z,102108.42
2019-06-26T13:37:47.749Z,102099.45
2019-06-26T13:40:21.365Z,102111.35
2019-06-26T13:42:55.434Z,102115.03
2019-06-26T13:45:29.897Z,102120.41
2019-06-26T13:48:03.833Z,102127.97
2019-06-26T13:50:50.594Z,102126.98
2019-06-26T13:53:24.160Z,102132.47
2019-06-26T13:55:58.166Z,102133.73
2019-06-26T13:58:45.106Z,102131.18
2019-06-26T14:01:18.695Z,102134.05
2019-06-26T14:03:51.948Z,102130.34
2019-06-26T14:06:25.803Z,102128.87
2019-06-26T14:08:59.377Z,102128.30
2019-06-26T14:11:32.624Z,102138.88
2019-06-26T14:14:06.212Z,102138.19
2019-06-26T14:16:43.584Z,102146.86
2019-06-26T14:19:17.394Z,102142.95
2019-06-26T14:22:03.483Z,102143.76
2019-06-26T14:24:36.829Z,102141.80
2019-06-26T14:27:10.410Z,102144.25
2019-06-26T14:29:43.645Z,102144.06
2019-06-26T14:32:35.488Z,102152.66
2019-06-26T14:35:26.836Z,102148.14
2019-06-26T14:38:00.777Z,102151.89
2019-06-26T14:40:33.018Z,102167.56
2019-06-26T14:43:25.113Z,102170.50
2019-06-26T14:45:59.017Z,102160.88
2019-06-26T14:48:32.333Z,102160.25
2019-06-26T14:51:05.701Z,102155.66
2019-06-26T14:53:39.657Z,102163.78
2019-06-26T14:56:12.888Z,102163.96
2019-06-26T14:58:46.517Z,102170.16
2019-06-26T15:01:20.306Z,102172.29
2019-06-26T15:03:54.442Z,102168.52
2019-06-26T15:06:37.990Z,102170.58
2019-06-26T15:09:11.390Z,102177.07
2019-06-26T15:11:45.776Z,102166.29
2019-06-26T15:14:31.808Z,102170.09
2019-06-26T15:17:18.150Z,102168.41
2019-06-26T15:20:01.542Z,102167.93
2019-06-26T15:22:53.766Z,102169.75
2019-06-26T15:25:27.009Z,102177.66
2019-06-26T15:28:00.682Z,102173.37
2019-06-26T15:30:37.054Z,102178.25
2019-06-26T15:33:10.801Z,102181.28
2019-06-26T15:35:44.061Z,102170.13
2019-06-26T15:38:37.800Z,102181.12
2019-06-26T15:41:11.015Z,102173.27
2019-06-26T15:43:56.997Z,102179.01
2019-06-26T15:46:30.342Z,102176.92
2019-06-26T15:49:03.837Z,102173.77
2019-06-26T15:51:41.248Z,102144.80
2019-06-26T15:54:25.076Z,102172.43
2019-06-26T15:57:08.819Z,102172.02
2019-06-26T15:59:41.281Z,102182.22
2019-06-26T16:02:16.795Z,102126.80
2019-06-26T16:04:51.351Z,102188.88
2019-06-26T16:07:24.537Z,102191.45
2019-06-26T16:09:58.751Z,102205.94
2019-06-26T16:12:44.954Z,102192.48
2019-06-26T16:15:39.870Z,102208.84
2019-06-26T16:18:21.487Z,102219.61
2019-06-26T16:20:55.244Z,102221.88
2019-06-26T16:23:27.483Z,102230.53
2019-06-26T16:26:01.169Z,102234.17
2019-06-26T16:28:34.766Z,102230.65
2019-06-26T16:31:09.384Z,102230.84
2019-06-26T16:33:54.808Z,102236.42
2019-06-26T16:36:29.897Z,102252.42
2019-06-26T16:39:02.841Z,102259.73
2019-06-26T16:41:41.860Z,102262.87
2019-06-26T16:44:15.525Z,102248.64
2019-06-26T16:46:50.301Z,102255.41
2019-06-26T16:49:28.027Z,102256.98
2019-06-26T16:52:03.975Z,102250.05
2019-06-26T16:54:43.974Z,102248.65
2019-06-26T16:57:16.299Z,102241.79
2019-06-26T16:59:49.557Z,102244.72
2019-06-26T17:02:22.447Z,102250.88
2019-06-26T17:05:06.039Z,102262.52
2019-06-26T17:07:39.254Z,102258.48
2019-06-26T17:10:12.856Z,102264.20
2019-06-26T17:12:46.691Z,102266.70
2019-06-26T17:15:19.719Z,102264.47
2019-06-26T17:17:53.098Z,102239.05
2019-06-26T17:20:38.597Z,102276.32
2019-06-26T17:23:22.142Z,102267.24
2019-06-26T17:26:06.069Z,102266.98
2019-06-26T17:28:42.209Z,102271.34
2019-06-26T17:31:16.103Z,102277.84
2019-06-26T17:33:49.815Z,102274.77
2019-06-26T17:36:22.679Z,102280.08
2019-06-26T17:38:57.120Z,102275.50
2019-06-26T17:41:47.092Z,102271.19
2019-06-26T17:44:20.455Z,102275.13
2019-06-26T17:46:54.231Z,102271.34
2019-06-26T17:49:27.858Z,102277.11
2019-06-26T17:52:01.727Z,102282.97
2019-06-26T17:54:48.475Z,102280.13
2019-06-26T17:57:32.737Z,102288.48
2019-06-26T18:00:07.274Z,102294.51
2019-06-26T18:02:50.906Z,102286.60
2019-06-26T18:05:24.186Z,102287.11
2019-06-26T18:07:57.858Z,102292.72
2019-06-26T18:10:31.427Z,102298.05
2019-06-26T18:13:05.956Z,102299.17
2019-06-26T18:15:40.023Z,102307.41
2019-06-26T18:18:16.277Z,102309.02
2019-06-26T18:21:01.706Z,102317.38
2019-06-26T18:23:38.479Z,102316.72
2019-06-26T18:26:13.470Z,102317.64
2019-06-26T18:28:45.990Z,102317.36
2019-06-26T18:31:19.594Z,102326.72
2019-06-26T18:33:52.992Z,102338.52
2019-06-26T18:36:26.567Z,102338.15
2019-06-26T18:38:59.992Z,102324.33
2019-06-26T18:41:32.953Z,102322.19
2019-06-26T18:44:16.202Z,102330.21
2019-06-26T18:46:49.434Z,102340.62
2019-06-26T18:49:22.671Z,102327.03
2019-06-26T18:51:56.173Z,102324.51
2019-06-26T18:54:29.473Z,102321.94
2019-06-26T18:57:12.942Z,102329.80
2019-06-26T18:59:56.648Z,102339.33
2019-06-26T19:02:40.975Z,102345.94
2019-06-26T19:05:14.721Z,102342.86
2019-06-26T19:07:48.323Z,102350.91
2019-06-26T19:10:21.551Z,102349.70
2019-06-26T19:13:46.817Z,102341.95
2019-06-26T19:16:36.151Z,102355.37
2019-06-26T19:19:12.123Z,102354.28
2019-06-26T19:21:44.208Z,102352.41
2019-06-26T19:24:17.606Z,102348.08
2019-06-26T19:26:51.304Z,102360.58
2019-06-26T19:29:25.224Z,102365.41
2019-06-26T19:31:58.395Z,102360.14
2019-06-26T19:34:32.390Z,102370.61
2019-06-26T19:37:05.609Z,102367.58
2019-06-26T19:39:39.506Z,102368.72
2019-06-26T19:42:13.066Z,102372.69
2019-06-26T19:44:46.540Z,102376.06
2019-06-26T19:47:20.476Z,102356.64
2019-06-26T19:49:54.445Z,102377.12
2019-06-26T19:52:41.268Z,102373.41
2019-06-26T19:55:15.160Z,102377.30
2019-06-26T19:57:49.250Z,102380.11
2019-06-26T20:00:22.355Z,102391.52
2019-06-26T20:02:55.563Z,102403.58
2019-06-26T20:05:42.115Z,102396.16
2019-06-26T20:08:15.359Z,102396.30
2019-06-26T20:10:49.292Z,102390.11
2019-06-26T20:13:23.530Z,102400.13
2019-06-26T20:16:16.532Z,102393.91
2019-06-26T20:19:33.589Z,102391.18
2019-06-26T20:22:06.851Z,102389.69
2019-06-26T20:24:44.634Z,102394.97
2019-06-26T20:27:15.309Z,102402.92
2019-06-26T20:29:48.983Z,102391.84
2019-06-26T20:32:22.537Z,102395.55
2019-06-26T20:35:09.915Z,102394.24
2019-06-26T20:38:04.236Z,102395.73
2019-06-26T20:40:38.699Z,102355.64
2019-06-26T20:43:12.293Z,102392.41
2019-06-26T20:45:45.870Z,102394.75
2019-06-26T20:48:20.461Z,102396.47
2019-06-26T20:50:53.868Z,102390.62
2019-06-26T20:53:28.393Z,102388.20
2019-06-26T20:56:05.399Z,102388.54
2019-06-26T20:58:55.521Z,102389.44
2019-06-26T21:01:28.744Z,102400.72
2019-06-26T21:04:02.541Z,102396.35
2019-06-26T21:06:34.799Z,102401.09
2019-06-26T21:09:09.016Z,102400.36
2019-06-26T21:11:42.688Z,102402.05
2019-06-26T21:14:16.981Z,102407.70
2019-06-26T21:16:51.169Z,102401.41
2019-06-26T21:20:08.972Z,102404.00
2019-06-26T21:22:42.675Z,102406.61
2019-06-26T21:25:19.380Z,102415.42
2019-06-26T21:27:52.307Z,102406.55
2019-06-26T21:30:26.020Z,102411.00
2019-06-26T21:32:59.518Z,102418.13
2019-06-26T21:35:32.947Z,102422.66
2019-06-26T21:38:06.183Z,102412.87
2019-06-26T22:26:14.287Z,102424.39
2019-06-26T22:28:48.039Z,102431.73
2019-06-26T22:31:45.935Z,102427.93
2019-06-26T22:34:31.088Z,102438.81
2019-06-26T22:37:04.471Z,102432.91
2019-06-26T22:39:38.439Z,102432.91
2019-06-26T22:42:17.817Z,102435.72
2019-06-26T22:44:51.610Z,102435.92
2019-06-26T22:47:25.496Z,102440.78
2019-06-26T22:50:00.783Z,102440.46
2019-06-26T22:52:34.500Z,102441.84
2019-06-26T22:55:08.400Z,102441.36
2019-06-26T23:00:59.704Z,102438.22
2019-06-26T23:03:33.463Z,102430.97
2019-06-26T23:06:20.681Z,102445.22
2019-06-26T23:09:13.300Z,102451.83
2019-06-26T23:11:47.657Z,102446.72
2019-06-26T23:14:20.921Z,102450.61
2019-06-26T23:16:54.126Z,102450.04
2019-06-26T23:19:27.821Z,102450.57
2019-06-26T23:22:03.568Z,102446.72
2019-06-26T23:24:41.533Z,102445.73
2019-06-26T23:27:30.325Z,102455.66
2019-06-26T23:30:04.627Z,102446.30
2019-06-26T23:32:50.449Z,102446.84
2019-06-26T23:35:36.556Z,102456.55
2019-06-26T23:38:11.638Z,102452.16
2019-06-26T23:40:44.937Z,102455.30
2019-06-26T23:43:18.330Z,102450.42
2019-06-26T23:45:51.804Z,102456.94
2019-06-26T23:48:26.382Z,102451.41
2019-06-26T23:51:11.550Z,102448.02
2019-06-26T23:53:44.955Z,102445.86
2019-06-26T23:56:21.400Z,102433.30
2019-06-26T23:58:54.460Z,102440.14
